createdAt,value
2018-06-05T00:00:08.419Z,10.33
2018-06-05T00:02:35.833Z,10.80
2018-06-05T00:05:03.293Z,12.97
2018-06-05T00:07:30.784Z,11.77
2018-06-05T00:09:58.202Z,11.83
2018-06-05T00:12:25.630Z,12.57
2018-06-05T00:14:53.019Z,12.80
2018-06-05T00:17:20.404Z,12.50
2018-06-05T00:19:47.803Z,11.93
2018-06-05T00:22:15.194Z,12.20
2018-06-05T00:24:42.585Z,12.37
2018-06-05T00:27:09.979Z,13.57
2018-06-05T00:29:37.357Z,11.47
2018-06-05T00:32:04.924Z,12.10
2018-06-05T00:34:32.312Z,11.63
2018-06-05T00:36:59.705Z,13.13
2018-06-05T00:39:27.078Z,12.07
2018-06-05T00:41:54.496Z,11.97
2018-06-05T00:44:21.882Z,12.07
2018-06-05T00:46:49.278Z,10.73
2018-06-05T00:49:16.935Z,11.67
2018-06-05T00:51:55.940Z,11.27
2018-06-05T00:54:23.299Z,12.27
2018-06-05T00:56:50.695Z,11.97
2018-06-05T00:59:18.089Z,11.97
2018-06-05T01:01:46.260Z,11.73
2018-06-05T01:04:13.643Z,12.47
2018-06-05T01:06:41.050Z,12.73
2018-06-05T01:09:08.461Z,14.40
2018-06-05T01:11:35.855Z,12.37
2018-06-05T01:14:03.363Z,13.03
2018-06-05T01:16:30.751Z,12.87
2018-06-05T01:18:58.140Z,12.30
2018-06-05T01:21:25.532Z,15.20
2018-06-05T01:23:52.946Z,14.50
2018-06-05T01:26:20.372Z,13.67
2018-06-05T01:28:47.760Z,15.10
2018-06-05T01:31:15.189Z,14.10
2018-06-05T01:33:42.557Z,13.83
2018-06-05T01:36:09.934Z,13.57
2018-06-05T01:38:37.343Z,13.47
2018-06-05T01:41:04.718Z,13.37
2018-06-05T01:43:32.090Z,12.97
2018-06-05T01:45:59.491Z,12.80
2018-06-05T01:48:26.891Z,13.63
2018-06-05T01:50:54.296Z,13.37
2018-06-05T01:53:21.701Z,14.23
2018-06-05T01:55:49.074Z,15.43
2018-06-05T01:58:16.441Z,13.13
2018-06-05T02:00:43.822Z,12.57
2018-06-05T02:03:11.249Z,12.63
2018-06-05T02:05:38.631Z,13.67
2018-06-05T02:08:06.018Z,17.33
2018-06-05T02:10:33.399Z,14.80
2018-06-05T02:13:00.768Z,16.60
2018-06-05T02:15:28.183Z,15.40
2018-06-05T02:17:55.580Z,15.30
2018-06-05T02:20:22.972Z,14.97
2018-06-05T02:22:50.388Z,14.00
2018-06-05T02:25:17.751Z,14.60
2018-06-05T02:27:45.184Z,14.50
2018-06-05T02:30:12.563Z,15.27
2018-06-05T02:32:39.934Z,14.97
2018-06-05T02:35:07.647Z,15.47
2018-06-05T02:37:35.048Z,16.70
2018-06-05T02:40:02.467Z,15.40
2018-06-05T02:42:29.867Z,16.47
2018-06-05T02:44:57.280Z,16.87
2018-06-05T02:47:24.713Z,15.43
2018-06-05T02:49:52.082Z,16.20
2018-06-05T02:52:19.472Z,16.90
2018-06-05T02:54:46.870Z,15.57
2018-06-05T02:57:14.263Z,16.37
2018-06-05T02:59:41.650Z,16.50
2018-06-05T03:02:09.019Z,15.83
2018-06-05T03:04:36.391Z,16.40
2018-06-05T03:07:03.795Z,19.33
2018-06-05T03:09:31.193Z,17.57
2018-06-05T03:11:58.591Z,18.23
2018-06-05T03:14:26.055Z,16.70
2018-06-05T03:16:53.439Z,16.00
2018-06-05T03:19:20.849Z,15.93
2018-06-05T03:21:48.255Z,16.60
2018-06-05T03:24:15.624Z,17.13
2018-06-05T03:26:42.995Z,18.33
2018-06-05T03:29:10.393Z,17.67
2018-06-05T03:31:37.783Z,18.87
2018-06-05T03:34:05.272Z,16.17
2018-06-05T03:36:32.628Z,18.50
2018-06-05T03:39:00.007Z,17.90
2018-06-05T03:41:28.656Z,15.00
2018-06-05T03:43:56.067Z,15.70
2018-06-05T03:46:23.446Z,17.60
2018-06-05T03:48:51.102Z,15.70
2018-06-05T03:51:18.501Z,15.97
2018-06-05T03:53:45.891Z,14.93
2018-06-05T03:56:13.279Z,16.27
2018-06-05T03:58:40.662Z,16.53
2018-06-05T04:01:08.040Z,15.40
2018-06-05T04:03:35.446Z,16.57
2018-06-05T04:06:02.881Z,18.70
2018-06-05T04:08:30.268Z,17.10
2018-06-05T04:10:57.665Z,17.63
2018-06-05T04:13:25.084Z,18.30
2018-06-05T04:15:52.500Z,16.13
2018-06-05T04:18:19.900Z,13.97
2018-06-05T04:20:47.305Z,16.40
2018-06-05T04:23:14.694Z,14.23
2018-06-05T04:25:42.092Z,17.17
2018-06-05T04:28:09.479Z,18.30
2018-06-05T04:30:36.859Z,16.87
2018-06-05T04:33:04.232Z,19.23
2018-06-05T04:35:31.623Z,17.70
2018-06-05T04:37:59.004Z,19.57
2018-06-05T04:40:26.406Z,16.73
2018-06-05T04:42:53.793Z,18.00
2018-06-05T04:45:21.191Z,14.77
2018-06-05T04:47:48.634Z,15.23
2018-06-05T04:50:15.999Z,17.13
2018-06-05T04:52:43.394Z,17.17
2018-06-05T04:55:10.759Z,17.10
2018-06-05T04:57:38.176Z,15.03
2018-06-05T05:00:05.658Z,16.50
2018-06-05T05:02:33.050Z,15.30
2018-06-05T05:05:00.449Z,13.63
2018-06-05T05:07:27.839Z,15.33
2018-06-05T05:09:55.274Z,14.87
2018-06-05T05:12:22.704Z,14.90
2018-06-05T05:14:50.106Z,13.97
2018-06-05T05:17:17.514Z,14.43
2018-06-05T05:19:44.978Z,15.10
2018-06-05T05:22:12.394Z,15.53
2018-06-05T05:24:39.754Z,14.50
2018-06-05T05:27:07.158Z,16.70
2018-06-05T05:29:34.531Z,15.37
2018-06-05T05:32:01.939Z,14.93
2018-06-05T05:34:29.342Z,14.77
2018-06-05T05:36:56.727Z,13.13
2018-06-05T05:39:24.106Z,15.17
2018-06-05T05:41:51.519Z,15.13
2018-06-05T05:44:18.946Z,13.43
2018-06-05T05:46:46.315Z,14.17
2018-06-05T05:49:13.695Z,14.63
2018-06-05T05:51:41.067Z,13.10
2018-06-05T05:54:08.446Z,13.10
2018-06-05T05:56:35.840Z,13.10
2018-06-05T05:59:03.338Z,12.47
2018-06-05T06:01:30.733Z,13.60
2018-06-05T06:03:58.186Z,13.47
2018-06-05T06:06:25.571Z,13.53
2018-06-05T06:08:52.985Z,12.63
2018-06-05T06:11:20.380Z,11.63
2018-06-05T06:13:47.773Z,11.60
2018-06-05T06:16:15.150Z,11.23
2018-06-05T06:18:42.537Z,11.43
2018-06-05T06:21:09.957Z,10.90
2018-06-05T06:23:37.338Z,11.37
2018-06-05T06:26:04.805Z,11.73
2018-06-05T06:28:32.191Z,10.63
2018-06-05T06:30:59.568Z,11.77
2018-06-05T06:33:26.951Z,10.73
2018-06-05T06:35:54.548Z,10.47
2018-06-05T06:38:21.930Z,9.97
2018-06-05T06:40:49.383Z,11.70
2018-06-05T06:43:16.754Z,11.60
2018-06-05T06:45:44.144Z,12.07
2018-06-05T06:48:11.553Z,11.53
2018-06-05T06:50:38.940Z,10.83
2018-06-05T06:53:06.310Z,10.77
2018-06-05T06:55:33.720Z,11.10
2018-06-05T06:58:01.118Z,10.23
2018-06-05T07:00:28.516Z,9.97
2018-06-05T07:02:55.954Z,10.37
2018-06-05T07:05:23.319Z,10.37
2018-06-05T07:07:50.691Z,9.40
2018-06-05T07:10:18.075Z,9.97
2018-06-05T07:12:45.454Z,10.27
2018-06-05T07:15:12.829Z,11.17
2018-06-05T07:17:40.214Z,10.50
2018-06-05T07:20:07.608Z,10.67
2018-06-05T07:22:34.966Z,10.97
2018-06-05T07:25:02.364Z,9.83
2018-06-05T07:27:29.799Z,12.87
2018-06-05T07:29:57.205Z,10.87
2018-06-05T07:32:24.588Z,10.60
2018-06-05T07:34:51.980Z,10.50
2018-06-05T07:37:19.381Z,10.73
2018-06-05T07:39:46.767Z,10.40
2018-06-05T07:42:14.177Z,10.33
2018-06-05T07:44:41.611Z,10.67
2018-06-05T07:47:08.967Z,11.10
2018-06-05T07:49:36.368Z,10.83
2018-06-05T07:52:03.751Z,10.97
2018-06-05T07:54:31.119Z,11.60
2018-06-05T07:56:58.525Z,10.57
2018-06-05T07:59:25.899Z,10.90
2018-06-05T08:01:53.270Z,10.47
2018-06-05T08:04:20.651Z,11.40
2018-06-05T08:06:48.031Z,9.63
2018-06-05T08:09:15.448Z,11.80
2018-06-05T08:11:43.011Z,10.00
2018-06-05T08:14:10.387Z,10.13
2018-06-05T08:16:37.750Z,11.13
2018-06-05T08:19:05.156Z,11.07
2018-06-05T08:21:32.552Z,11.07
2018-06-05T08:23:59.887Z,11.90
2018-06-05T08:26:36.560Z,12.57
2018-06-05T08:29:03.943Z,10.80
2018-06-05T08:31:31.330Z,10.83
2018-06-05T08:33:58.759Z,11.37
2018-06-05T08:36:26.144Z,9.77
2018-06-05T08:38:53.531Z,10.33
2018-06-05T08:41:20.930Z,10.87
2018-06-05T08:43:48.297Z,11.23
2018-06-05T08:46:15.677Z,11.00
2018-06-05T08:48:43.083Z,11.40
2018-06-05T08:51:10.472Z,9.80
2018-06-05T08:53:38.855Z,10.00
2018-06-05T08:56:06.279Z,12.03
2018-06-05T08:58:33.678Z,10.43
2018-06-05T09:01:01.066Z,10.37
2018-06-05T09:03:28.450Z,11.40
2018-06-05T09:05:55.815Z,11.27
2018-06-05T09:08:23.233Z,11.10
2018-06-05T09:10:50.639Z,9.63
2018-06-05T09:13:18.018Z,10.87
2018-06-05T09:15:45.439Z,10.57
2018-06-05T09:18:12.833Z,10.73
2018-06-05T09:20:40.232Z,11.13
2018-06-05T09:23:07.627Z,10.93
2018-06-05T09:25:35.048Z,10.77
2018-06-05T09:28:03.057Z,11.57
2018-06-05T09:30:30.483Z,12.07
2018-06-05T09:32:57.847Z,11.13
2018-06-05T09:35:25.232Z,10.00
2018-06-05T09:37:52.620Z,9.63
2018-06-05T09:40:19.991Z,9.83
2018-06-05T09:42:47.366Z,9.87
2018-06-05T09:45:14.747Z,9.67
2018-06-05T09:47:42.142Z,10.20
2018-06-05T09:50:09.515Z,9.77
2018-06-05T09:52:36.977Z,9.53
2018-06-05T09:55:04.371Z,10.43
2018-06-05T09:57:31.748Z,11.40
2018-06-05T09:59:59.151Z,10.07
2018-06-05T10:02:26.519Z,9.97
2018-06-05T10:04:53.899Z,9.80
2018-06-05T10:07:21.294Z,9.73
2018-06-05T10:09:48.677Z,11.33
2018-06-05T10:12:16.102Z,9.57
2018-06-05T10:14:43.653Z,9.80
2018-06-05T10:17:11.055Z,10.83
2018-06-05T10:19:38.424Z,10.53
2018-06-05T10:22:05.798Z,10.03
2018-06-05T10:24:33.178Z,9.20
2018-06-05T10:27:00.607Z,9.90
2018-06-05T10:29:27.995Z,9.67
2018-06-05T10:31:55.388Z,8.33
2018-06-05T10:34:22.759Z,8.63
2018-06-05T10:36:50.166Z,9.93
2018-06-05T10:39:17.540Z,9.40
2018-06-05T10:41:44.942Z,9.30
2018-06-05T10:44:12.332Z,9.50
2018-06-05T10:46:39.715Z,9.90
2018-06-05T10:49:07.091Z,9.00
2018-06-05T10:51:34.534Z,8.40
2018-06-05T10:54:01.922Z,9.10
2018-06-05T10:56:29.316Z,9.60
2018-06-05T10:58:56.724Z,9.63
2018-06-05T11:01:24.099Z,8.77
2018-06-05T11:03:51.499Z,8.90
2018-06-05T11:06:18.887Z,9.43
2018-06-05T11:08:46.280Z,10.27
2018-06-05T11:11:13.694Z,11.03
2018-06-05T11:13:41.075Z,10.10
2018-06-05T11:16:08.454Z,10.87
2018-06-05T11:18:35.845Z,9.80
2018-06-05T11:21:03.244Z,11.43
2018-06-05T11:23:30.651Z,10.80
2018-06-05T11:25:58.042Z,10.30
2018-06-05T11:28:25.431Z,11.47
2018-06-05T11:30:52.799Z,11.70
2018-06-05T11:33:20.181Z,11.53
2018-06-05T11:35:47.598Z,10.67
2018-06-05T11:38:14.977Z,10.77
2018-06-05T11:40:42.342Z,11.23
2018-06-05T11:43:09.747Z,12.17
2018-06-05T11:45:37.131Z,11.93
2018-06-05T11:48:04.662Z,11.63
2018-06-05T11:50:32.060Z,12.83
2018-06-05T11:52:59.449Z,11.00
2018-06-05T11:55:26.854Z,11.87
2018-06-05T11:57:54.491Z,12.13
2018-06-05T12:00:21.915Z,11.67
2018-06-05T12:02:49.316Z,11.80
2018-06-05T12:05:16.737Z,13.57
2018-06-05T12:07:44.124Z,11.70
2018-06-05T12:10:11.548Z,11.43
2018-06-05T12:12:38.944Z,12.23
2018-06-05T12:15:06.352Z,12.67
2018-06-05T12:17:33.728Z,13.33
2018-06-05T12:20:01.168Z,12.73
2018-06-05T12:22:28.567Z,11.83
2018-06-05T12:24:55.943Z,12.47
2018-06-05T12:27:23.341Z,11.50
2018-06-05T12:29:50.723Z,11.43
2018-06-05T12:32:18.104Z,10.73
2018-06-05T12:34:45.507Z,13.10
2018-06-05T12:37:12.920Z,11.60
2018-06-05T12:39:40.304Z,12.57
2018-06-05T12:42:07.706Z,11.87
2018-06-05T12:44:35.103Z,10.83
2018-06-05T12:47:02.495Z,12.73
2018-06-05T12:49:29.894Z,12.17
2018-06-05T12:51:57.267Z,12.50
2018-06-05T12:54:24.651Z,12.83
2018-06-05T12:56:52.055Z,13.13
2018-06-05T12:59:19.465Z,12.60
2018-06-05T13:01:46.932Z,12.07
2018-06-05T13:04:14.317Z,11.77
2018-06-05T13:06:41.729Z,11.13
2018-06-05T13:09:09.454Z,13.70
2018-06-05T13:11:36.850Z,11.77
2018-06-05T13:14:04.273Z,15.07
2018-06-05T13:16:31.663Z,12.87
2018-06-05T13:18:59.084Z,12.43
2018-06-05T13:21:26.486Z,12.63
2018-06-05T13:23:53.861Z,12.10
2018-06-05T13:26:21.278Z,12.87
2018-06-05T13:28:48.681Z,12.37
2018-06-05T13:31:16.084Z,12.47
2018-06-05T13:33:43.471Z,13.70
2018-06-05T13:36:10.871Z,13.20
2018-06-05T13:38:38.290Z,12.23
2018-06-05T13:41:05.704Z,14.00
2018-06-05T13:43:33.105Z,12.93
2018-06-05T13:46:00.522Z,13.50
2018-06-05T13:48:27.904Z,12.83
2018-06-05T13:50:55.307Z,13.43
2018-06-05T13:53:22.693Z,12.07
2018-06-05T13:55:50.159Z,12.53
2018-06-05T13:58:17.548Z,11.83
2018-06-05T14:00:44.950Z,12.70
2018-06-05T14:03:12.333Z,13.47
2018-06-05T14:05:39.740Z,12.63
2018-06-05T14:08:07.147Z,13.27
2018-06-05T14:10:34.519Z,13.93
2018-06-05T14:13:01.912Z,13.93
2018-06-05T14:15:29.345Z,13.03
2018-06-05T14:17:56.748Z,12.73
2018-06-05T14:20:24.155Z,12.47
2018-06-05T14:22:51.556Z,12.00
2018-06-05T14:25:18.932Z,10.57
2018-06-05T14:27:46.320Z,13.40
2018-06-05T14:30:14.023Z,12.00
2018-06-05T14:32:41.423Z,11.53
2018-06-05T14:35:08.807Z,11.47
2018-06-05T14:37:36.211Z,12.23
2018-06-05T14:40:04.192Z,12.00
2018-06-05T14:42:31.563Z,12.77
2018-06-05T14:44:59.043Z,11.27
2018-06-05T14:47:26.399Z,12.10
2018-06-05T14:49:53.777Z,12.37
2018-06-05T14:52:21.165Z,10.37
2018-06-05T14:54:48.550Z,10.97
2018-06-05T14:57:16.012Z,11.60
2018-06-05T14:59:43.431Z,12.80
2018-06-05T15:02:10.877Z,12.57
2018-06-05T15:04:38.271Z,12.13
2018-06-05T15:07:05.688Z,14.07
2018-06-05T15:09:33.169Z,11.00
2018-06-05T15:12:00.619Z,11.10
2018-06-05T15:14:28.040Z,11.43
2018-06-05T15:16:55.471Z,11.67
2018-06-05T15:19:22.872Z,11.80
2018-06-05T15:21:50.533Z,10.80
2018-06-05T15:24:17.922Z,12.47
2018-06-05T15:26:45.323Z,11.87
2018-06-05T15:29:12.787Z,11.27
2018-06-05T15:31:40.174Z,11.07
2018-06-05T15:36:41.837Z,12.07
2018-06-05T15:39:09.355Z,11.17
2018-06-05T15:41:37.063Z,10.17
2018-06-05T15:44:04.522Z,11.47
2018-06-05T15:46:31.913Z,10.13
2018-06-05T15:48:59.325Z,11.63
2018-06-05T15:51:26.740Z,10.77
2018-06-05T15:53:54.135Z,9.67
2018-06-05T15:56:21.531Z,10.97
2018-06-05T15:58:48.923Z,11.07
2018-06-05T16:01:16.567Z,11.07
2018-06-05T16:03:43.947Z,11.17
2018-06-05T16:06:11.358Z,10.33
2018-06-05T16:08:38.784Z,9.80
2018-06-05T16:11:06.191Z,9.93
2018-06-05T16:13:33.617Z,9.37
2018-06-05T16:16:01.047Z,10.17
2018-06-05T16:18:28.427Z,11.53
2018-06-05T16:20:55.825Z,10.03
2018-06-05T16:23:23.197Z,9.77
2018-06-05T16:25:50.579Z,10.63
2018-06-05T16:28:18.006Z,9.47
2018-06-05T16:30:45.379Z,9.90
2018-06-05T16:33:12.783Z,10.27
2018-06-05T16:35:40.192Z,11.73
2018-06-05T16:38:07.595Z,10.03
2018-06-05T16:40:35.017Z,10.73
2018-06-05T16:43:02.457Z,10.07
2018-06-05T16:45:29.861Z,9.00
2018-06-05T16:47:57.249Z,9.87
2018-06-05T16:50:24.670Z,10.00
2018-06-05T16:52:52.112Z,9.97
2018-06-05T16:55:19.459Z,10.27
2018-06-05T16:57:46.992Z,10.47
2018-06-05T17:00:14.428Z,9.83
2018-06-05T17:02:41.843Z,9.27
2018-06-05T17:05:09.247Z,9.70
2018-06-05T17:07:36.615Z,9.40
2018-06-05T17:10:04.033Z,9.53
2018-06-05T17:12:31.423Z,8.90
2018-06-05T17:14:58.809Z,9.87
2018-06-05T17:17:26.271Z,9.17
2018-06-05T17:19:53.650Z,10.40
2018-06-05T17:22:21.050Z,10.10
2018-06-05T17:24:48.485Z,8.83
2018-06-05T17:27:16.030Z,9.83
2018-06-05T17:29:43.295Z,9.30
2018-06-05T17:32:10.963Z,8.90
2018-06-05T17:34:38.354Z,8.83
2018-06-05T17:37:05.760Z,8.33
2018-06-05T17:39:33.448Z,9.33
2018-06-05T17:42:00.861Z,9.30
2018-06-05T17:44:28.251Z,9.90
2018-06-05T17:46:57.146Z,9.73
2018-06-05T17:49:24.599Z,8.60
2018-06-05T17:51:51.983Z,10.60
2018-06-05T17:54:19.397Z,8.80
2018-06-05T17:56:46.787Z,9.30
2018-06-05T17:59:14.208Z,9.73
2018-06-05T18:01:41.677Z,9.57
2018-06-05T18:04:09.122Z,9.30
2018-06-05T18:06:37.577Z,9.17
2018-06-05T18:09:06.631Z,9.63
2018-06-05T18:11:34.129Z,9.60
2018-06-05T18:14:01.551Z,9.83
2018-06-05T18:16:28.957Z,10.07
2018-06-05T18:18:56.348Z,9.13
2018-06-05T18:21:23.746Z,9.07
2018-06-05T18:23:51.151Z,9.00
2018-06-05T18:26:18.558Z,9.60
2018-06-05T18:28:45.937Z,9.63
2018-06-05T18:31:13.384Z,9.50
2018-06-05T18:33:40.788Z,9.00
2018-06-05T18:36:08.275Z,8.20
2018-06-05T18:38:35.674Z,8.87
2018-06-05T18:41:03.123Z,9.60
2018-06-05T18:43:30.563Z,9.30
2018-06-05T18:45:58.275Z,8.73
2018-06-05T18:48:25.692Z,9.10
2018-06-05T18:50:53.073Z,8.60
2018-06-05T18:53:20.485Z,8.97
2018-06-05T18:55:47.924Z,8.20
2018-06-05T18:58:15.391Z,9.10
2018-06-05T19:00:42.850Z,8.93
2018-06-05T19:03:10.207Z,9.30
2018-06-05T19:05:37.649Z,8.90
2018-06-05T19:08:05.074Z,9.27
2018-06-05T19:10:32.491Z,9.27
2018-06-05T19:12:59.935Z,9.23
2018-06-05T19:15:27.338Z,8.63
2018-06-05T19:17:54.780Z,8.00
2018-06-05T19:20:22.163Z,8.20
2018-06-05T19:22:49.594Z,7.73
2018-06-05T19:25:17.026Z,7.47
2018-06-05T19:27:44.431Z,8.30
2018-06-05T19:30:11.855Z,9.40
2018-06-05T19:32:39.273Z,8.80
2018-06-05T19:35:06.683Z,8.13
2018-06-05T19:37:34.058Z,8.00
2018-06-05T19:40:01.463Z,8.57
2018-06-05T19:42:28.875Z,8.50
2018-06-05T19:44:56.289Z,8.97
2018-06-05T19:47:23.772Z,9.77
2018-06-05T19:49:51.147Z,9.30
2018-06-05T19:52:18.551Z,9.30
2018-06-05T19:54:46.114Z,8.97
2018-06-05T19:57:13.530Z,8.50
2018-06-05T19:59:41.001Z,8.80
2018-06-05T20:02:08.467Z,9.07
2018-06-05T20:04:35.860Z,8.30
2018-06-05T20:07:03.259Z,9.17
2018-06-05T20:09:30.964Z,9.33
2018-06-05T20:11:58.352Z,9.10
2018-06-05T20:14:25.735Z,9.27
2018-06-05T20:16:53.155Z,7.73
2018-06-05T20:19:20.550Z,8.80
2018-06-05T20:21:48.000Z,9.30
2018-06-05T20:24:15.413Z,9.13
2018-06-05T20:26:42.880Z,10.07
2018-06-05T20:29:10.280Z,9.40
2018-06-05T20:31:37.669Z,10.60
2018-06-05T20:34:05.067Z,9.40
2018-06-05T20:36:32.481Z,8.50
2018-06-05T20:38:59.896Z,10.30
2018-06-05T20:41:27.291Z,8.97
2018-06-05T20:43:54.707Z,7.73
2018-06-05T20:46:22.108Z,9.03
2018-06-05T20:48:49.536Z,9.30
2018-06-05T20:51:16.953Z,9.17
2018-06-05T20:53:44.342Z,9.93
2018-06-05T20:56:11.744Z,9.77
2018-06-05T20:58:39.145Z,9.27
2018-06-05T21:01:06.566Z,9.53
2018-06-05T21:03:33.991Z,9.27
2018-06-05T21:06:01.359Z,10.50
2018-06-05T21:08:28.760Z,9.97
2018-06-05T21:10:56.148Z,10.33
2018-06-05T21:13:23.527Z,9.53
2018-06-05T21:15:50.920Z,9.63
2018-06-05T21:18:18.321Z,10.13
2018-06-05T21:20:45.744Z,10.50
2018-06-05T21:23:13.123Z,9.67
2018-06-05T21:25:40.495Z,10.43
2018-06-05T21:28:07.881Z,10.77
2018-06-05T21:30:35.298Z,9.00
2018-06-05T21:33:02.695Z,9.90
2018-06-05T21:35:30.067Z,9.97
2018-06-05T21:37:57.434Z,10.17
2018-06-05T21:40:24.847Z,10.23
2018-06-05T21:42:52.230Z,11.23
2018-06-05T21:45:19.596Z,11.37
2018-06-05T21:47:46.987Z,11.57
2018-06-05T21:50:14.383Z,11.97
2018-06-05T21:52:41.766Z,11.67
2018-06-05T21:55:10.031Z,11.40
2018-06-05T21:57:38.555Z,11.40
2018-06-05T22:00:05.975Z,10.53
2018-06-05T22:02:33.420Z,10.67
2018-06-05T22:05:00.812Z,9.53
2018-06-05T22:07:28.236Z,10.60
2018-06-05T22:09:55.624Z,10.60
2018-06-05T22:12:23.035Z,11.23
2018-06-05T22:14:50.418Z,10.53
2018-06-05T22:17:17.835Z,10.20
2018-06-05T22:19:45.208Z,10.07
2018-06-05T22:22:12.583Z,9.07
2018-06-05T22:24:39.967Z,9.57
2018-06-05T22:27:07.356Z,9.13
2018-06-05T22:29:34.719Z,10.67
2018-06-05T22:32:02.110Z,9.53
2018-06-05T22:34:29.523Z,9.70
2018-06-05T22:36:57.048Z,10.53
2018-06-05T22:39:24.616Z,9.47
2018-06-05T22:41:52.003Z,9.60
2018-06-05T22:44:19.375Z,9.77
2018-06-05T22:46:46.767Z,9.67
2018-06-05T22:49:14.126Z,10.70
2018-06-05T22:51:41.513Z,8.80
2018-06-05T22:54:08.907Z,9.77
2018-06-05T22:56:36.291Z,10.80
2018-06-05T22:59:03.683Z,10.07
2018-06-05T23:01:31.058Z,10.37
2018-06-05T23:03:58.447Z,9.80
2018-06-05T23:06:25.815Z,9.50
2018-06-05T23:08:53.223Z,10.03
2018-06-05T23:11:20.595Z,9.60
2018-06-05T23:13:47.979Z,10.20
2018-06-05T23:16:15.344Z,9.60
2018-06-05T23:18:42.719Z,10.37
2018-06-05T23:21:10.099Z,10.10
2018-06-05T23:23:37.481Z,9.67
2018-06-05T23:26:05.029Z,9.77
2018-06-05T23:28:32.398Z,10.77
2018-06-05T23:30:59.767Z,9.83
2018-06-05T23:33:27.192Z,9.73
2018-06-05T23:35:54.584Z,10.60
2018-06-05T23:38:21.967Z,9.87
2018-06-05T23:40:49.339Z,11.60
2018-06-05T23:43:16.716Z,11.57
2018-06-05T23:45:44.107Z,11.73
2018-06-05T23:48:11.495Z,11.13
2018-06-05T23:50:38.902Z,11.43
2018-06-05T23:53:06.300Z,11.00
2018-06-05T23:55:33.691Z,11.13
2018-06-05T23:58:01.079Z,11.33
